sensor_id;sensor_type;location;lat;lon;timestamp;temperature;humidity
10245;DHT22;5167;52.164;10.530;2023-07-24T00:00:20;22.10;12.80
10245;DHT22;5167;52.164;10.530;2023-07-24T00:02:46;22.20;13.20
10245;DHT22;5167;52.164;10.530;2023-07-24T00:05:11;22.20;12.90
10245;DHT22;5167;52.164;10.530;2023-07-24T00:07:37;22.20;13.10
10245;DHT22;5167;52.164;10.530;2023-07-24T00:10:03;22.20;13.50
10245;DHT22;5167;52.164;10.530;2023-07-24T00:12:29;22.20;13.20
10245;DHT22;5167;52.164;10.530;2023-07-24T00:14:55;22.20;14.10
10245;DHT22;5167;52.164;10.530;2023-07-24T00:17:21;22.20;13.60
10245;DHT22;5167;52.164;10.530;2023-07-24T00:19:46;22.10;13.10
10245;DHT22;5167;52.164;10.530;2023-07-24T00:22:12;22.10;13.50
10245;DHT22;5167;52.164;10.530;2023-07-24T00:24:37;22.20;12.40
10245;DHT22;5167;52.164;10.530;2023-07-24T00:27:03;22.20;13.90
10245;DHT22;5167;52.164;10.530;2023-07-24T00:29:28;22.20;14.10
10245;DHT22;5167;52.164;10.530;2023-07-24T00:31:54;22.10;14.10
10245;DHT22;5167;52.164;10.530;2023-07-24T00:34:20;22.20;13.70
10245;DHT22;5167;52.164;10.530;2023-07-24T00:36:45;22.20;13.70
10245;DHT22;5167;52.164;10.530;2023-07-24T00:39:11;22.20;13.80
10245;DHT22;5167;52.164;10.530;2023-07-24T00:41:36;22.20;14.10
10245;DHT22;5167;52.164;10.530;2023-07-24T00:44:02;22.20;14.00
10245;DHT22;5167;52.164;10.530;2023-07-24T00:46:28;22.00;14.50
10245;DHT22;5167;52.164;10.530;2023-07-24T00:48:58;22.20;14.40
10245;DHT22;5167;52.164;10.530;2023-07-24T00:51:26;22.20;14.10
10245;DHT22;5167;52.164;10.530;2023-07-24T00:53:52;22.20;13.10
10245;DHT22;5167;52.164;10.530;2023-07-24T00:56:17;22.20;14.20
10245;DHT22;5167;52.164;10.530;2023-07-24T00:58:43;22.20;15.00
10245;DHT22;5167;52.164;10.530;2023-07-24T01:01:10;22.10;14.00
10245;DHT22;5167;52.164;10.530;2023-07-24T01:03:36;22.20;14.80
10245;DHT22;5167;52.164;10.530;2023-07-24T01:06:03;22.20;15.00
10245;DHT22;5167;52.164;10.530;2023-07-24T01:08:29;22.10;15.10
10245;DHT22;5167;52.164;10.530;2023-07-24T01:11:03;22.20;14.60
10245;DHT22;5167;52.164;10.530;2023-07-24T01:13:36;22.10;15.10
10245;DHT22;5167;52.164;10.530;2023-07-24T01:16:10;22.10;15.30
10245;DHT22;5167;52.164;10.530;2023-07-24T01:18:38;22.10;15.90
10245;DHT22;5167;52.164;10.530;2023-07-24T01:21:05;22.10;15.10
10245;DHT22;5167;52.164;10.530;2023-07-24T01:26:09;22.00;13.80
10245;DHT22;5167;52.164;10.530;2023-07-24T01:28:36;22.00;15.50
10245;DHT22;5167;52.164;10.530;2023-07-24T01:31:01;22.00;15.70
10245;DHT22;5167;52.164;10.530;2023-07-24T01:33:27;21.90;14.40
10245;DHT22;5167;52.164;10.530;2023-07-24T01:35:58;21.90;14.30
10245;DHT22;5167;52.164;10.530;2023-07-24T01:38:25;21.90;16.20
10245;DHT22;5167;52.164;10.530;2023-07-24T01:40:52;21.90;15.80
10245;DHT22;5167;52.164;10.530;2023-07-24T01:43:18;21.90;16.00
10245;DHT22;5167;52.164;10.530;2023-07-24T01:45:43;21.90;16.40
10245;DHT22;5167;52.164;10.530;2023-07-24T01:48:09;21.80;16.70
10245;DHT22;5167;52.164;10.530;2023-07-24T01:50:34;21.90;16.30
10245;DHT22;5167;52.164;10.530;2023-07-24T01:53:00;21.90;16.60
10245;DHT22;5167;52.164;10.530;2023-07-24T01:55:25;21.90;16.20
10245;DHT22;5167;52.164;10.530;2023-07-24T01:57:51;21.90;15.90
10245;DHT22;5167;52.164;10.530;2023-07-24T02:00:17;22.00;16.80
10245;DHT22;5167;52.164;10.530;2023-07-24T02:02:42;21.90;17.30
10245;DHT22;5167;52.164;10.530;2023-07-24T02:05:08;21.90;16.70
10245;DHT22;5167;52.164;10.530;2023-07-24T02:07:33;21.90;16.80
10245;DHT22;5167;52.164;10.530;2023-07-24T02:09:59;21.90;17.20
10245;DHT22;5167;52.164;10.530;2023-07-24T02:12:24;21.80;16.70
10245;DHT22;5167;52.164;10.530;2023-07-24T02:14:50;21.80;16.70
10245;DHT22;5167;52.164;10.530;2023-07-24T02:17:17;21.90;17.10
10245;DHT22;5167;52.164;10.530;2023-07-24T02:19:43;21.90;17.10
10245;DHT22;5167;52.164;10.530;2023-07-24T02:22:09;21.90;16.20
10245;DHT22;5167;52.164;10.530;2023-07-24T02:24:34;21.90;16.20
10245;DHT22;5167;52.164;10.530;2023-07-24T02:27:00;21.90;15.90
10245;DHT22;5167;52.164;10.530;2023-07-24T02:29:25;21.90;16.60
10245;DHT22;5167;52.164;10.530;2023-07-24T02:31:52;21.90;16.20
10245;DHT22;5167;52.164;10.530;2023-07-24T02:34:18;21.90;16.50
10245;DHT22;5167;52.164;10.530;2023-07-24T02:36:43;21.90;16.00
10245;DHT22;5167;52.164;10.530;2023-07-24T02:39:09;21.90;15.40
10245;DHT22;5167;52.164;10.530;2023-07-24T02:41:34;22.00;15.20
10245;DHT22;5167;52.164;10.530;2023-07-24T02:44:01;21.90;16.50
10245;DHT22;5167;52.164;10.530;2023-07-24T02:46:27;22.00;15.20
10245;DHT22;5167;52.164;10.530;2023-07-24T02:48:54;22.00;15.70
10245;DHT22;5167;52.164;10.530;2023-07-24T02:51:19;22.10;15.50
10245;DHT22;5167;52.164;10.530;2023-07-24T02:53:45;21.90;15.60
10245;DHT22;5167;52.164;10.530;2023-07-24T02:56:10;22.00;15.80
10245;DHT22;5167;52.164;10.530;2023-07-24T02:58:35;22.00;16.30
10245;DHT22;5167;52.164;10.530;2023-07-24T03:01:05;22.00;15.30
10245;DHT22;5167;52.164;10.530;2023-07-24T03:03:32;21.90;15.70
10245;DHT22;5167;52.164;10.530;2023-07-24T03:05:57;21.90;14.70
10245;DHT22;5167;52.164;10.530;2023-07-24T03:08:23;21.80;15.40
10245;DHT22;5167;52.164;10.530;2023-07-24T03:10:49;21.80;15.50
10245;DHT22;5167;52.164;10.530;2023-07-24T03:13:14;21.80;15.80
10245;DHT22;5167;52.164;10.530;2023-07-24T03:15:39;21.80;15.60
10245;DHT22;5167;52.164;10.530;2023-07-24T03:18:05;21.80;15.50
10245;DHT22;5167;52.164;10.530;2023-07-24T03:20:30;21.80;15.90
10245;DHT22;5167;52.164;10.530;2023-07-24T03:22:56;21.80;16.20
10245;DHT22;5167;52.164;10.530;2023-07-24T03:25:21;21.80;15.80
10245;DHT22;5167;52.164;10.530;2023-07-24T03:27:47;21.80;15.60
10245;DHT22;5167;52.164;10.530;2023-07-24T03:30:13;21.80;13.70
10245;DHT22;5167;52.164;10.530;2023-07-24T03:32:38;21.70;15.00
10245;DHT22;5167;52.164;10.530;2023-07-24T03:35:05;21.70;15.60
10245;DHT22;5167;52.164;10.530;2023-07-24T03:37:31;21.70;15.10
10245;DHT22;5167;52.164;10.530;2023-07-24T03:39:57;21.90;15.40
10245;DHT22;5167;52.164;10.530;2023-07-24T03:42:27;21.80;15.00
10245;DHT22;5167;52.164;10.530;2023-07-24T03:44:53;21.80;14.60
10245;DHT22;5167;52.164;10.530;2023-07-24T03:47:19;21.80;15.30
10245;DHT22;5167;52.164;10.530;2023-07-24T03:49:44;21.80;14.60
10245;DHT22;5167;52.164;10.530;2023-07-24T03:52:10;21.90;15.50
10245;DHT22;5167;52.164;10.530;2023-07-24T03:54:35;21.90;14.40
10245;DHT22;5167;52.164;10.530;2023-07-24T03:57:01;21.90;14.30
10245;DHT22;5167;52.164;10.530;2023-07-24T03:59:26;21.90;14.50
10245;DHT22;5167;52.164;10.530;2023-07-24T04:01:52;21.90;13.10
10245;DHT22;5167;52.164;10.530;2023-07-24T04:04:17;21.90;13.60
10245;DHT22;5167;52.164;10.530;2023-07-24T04:06:43;22.00;14.40
10245;DHT22;5167;52.164;10.530;2023-07-24T04:09:08;22.00;13.10
10245;DHT22;5167;52.164;10.530;2023-07-24T04:11:36;22.00;14.30
10245;DHT22;5167;52.164;10.530;2023-07-24T04:14:03;21.90;13.70
10245;DHT22;5167;52.164;10.530;2023-07-24T04:16:29;21.90;14.40
10245;DHT22;5167;52.164;10.530;2023-07-24T04:18:54;21.90;14.70
10245;DHT22;5167;52.164;10.530;2023-07-24T04:21:19;21.90;14.40
10245;DHT22;5167;52.164;10.530;2023-07-24T04:23:45;22.00;13.90
10245;DHT22;5167;52.164;10.530;2023-07-24T04:26:10;22.00;13.50
10245;DHT22;5167;52.164;10.530;2023-07-24T04:28:36;22.00;13.60
10245;DHT22;5167;52.164;10.530;2023-07-24T04:31:01;22.00;13.30
10245;DHT22;5167;52.164;10.530;2023-07-24T04:33:27;22.00;13.40
10245;DHT22;5167;52.164;10.530;2023-07-24T04:35:54;22.00;13.40
10245;DHT22;5167;52.164;10.530;2023-07-24T04:38:20;22.00;13.40
10245;DHT22;5167;52.164;10.530;2023-07-24T04:40:46;22.00;13.80
10245;DHT22;5167;52.164;10.530;2023-07-24T04:43:12;22.10;14.10
10245;DHT22;5167;52.164;10.530;2023-07-24T04:45:37;22.00;13.00
10245;DHT22;5167;52.164;10.530;2023-07-24T04:48:03;22.10;13.50
10245;DHT22;5167;52.164;10.530;2023-07-24T04:50:29;22.10;13.40
10245;DHT22;5167;52.164;10.530;2023-07-24T04:52:55;22.10;13.40
10245;DHT22;5167;52.164;10.530;2023-07-24T04:55:21;22.10;13.30
10245;DHT22;5167;52.164;10.530;2023-07-24T04:57:47;22.10;12.90
10245;DHT22;5167;52.164;10.530;2023-07-24T05:00:12;22.10;12.40
10245;DHT22;5167;52.164;10.530;2023-07-24T05:02:38;22.20;11.60
10245;DHT22;5167;52.164;10.530;2023-07-24T05:05:04;22.20;11.30
10245;DHT22;5167;52.164;10.530;2023-07-24T05:07:30;22.20;11.30
10245;DHT22;5167;52.164;10.530;2023-07-24T05:09:55;22.20;12.10
10245;DHT22;5167;52.164;10.530;2023-07-24T05:12:21;22.30;11.20
10245;DHT22;5167;52.164;10.530;2023-07-24T05:14:46;22.30;11.70
10245;DHT22;5167;52.164;10.530;2023-07-24T05:17:12;22.30;10.40
10245;DHT22;5167;52.164;10.530;2023-07-24T05:19:38;22.30;11.10
10245;DHT22;5167;52.164;10.530;2023-07-24T05:22:03;22.30;10.70
10245;DHT22;5167;52.164;10.530;2023-07-24T05:24:29;22.40;11.00
10245;DHT22;5167;52.164;10.530;2023-07-24T05:26:54;22.30;10.40
10245;DHT22;5167;52.164;10.530;2023-07-24T05:29:20;22.40;11.30
10245;DHT22;5167;52.164;10.530;2023-07-24T05:31:45;22.40;11.20
10245;DHT22;5167;52.164;10.530;2023-07-24T05:34:11;22.40;11.10
10245;DHT22;5167;52.164;10.530;2023-07-24T05:36:36;22.40;10.80
10245;DHT22;5167;52.164;10.530;2023-07-24T05:39:02;22.50;11.00
10245;DHT22;5167;52.164;10.530;2023-07-24T05:41:28;22.50;11.20
10245;DHT22;5167;52.164;10.530;2023-07-24T05:43:53;22.60;10.50
10245;DHT22;5167;52.164;10.530;2023-07-24T05:46:19;22.50;9.60
10245;DHT22;5167;52.164;10.530;2023-07-24T05:48:44;22.60;9.20
10245;DHT22;5167;52.164;10.530;2023-07-24T05:51:10;22.70;10.90
10245;DHT22;5167;52.164;10.530;2023-07-24T05:53:35;22.70;10.60
10245;DHT22;5167;52.164;10.530;2023-07-24T05:56:02;22.70;10.30
10245;DHT22;5167;52.164;10.530;2023-07-24T05:58:27;22.80;10.20
10245;DHT22;5167;52.164;10.530;2023-07-24T06:00:53;22.80;11.00
10245;DHT22;5167;52.164;10.530;2023-07-24T06:03:21;22.80;9.60
10245;DHT22;5167;52.164;10.530;2023-07-24T06:05:49;22.80;10.10
10245;DHT22;5167;52.164;10.530;2023-07-24T06:08:15;22.80;9.00
10245;DHT22;5167;52.164;10.530;2023-07-24T06:10:40;22.90;8.30
10245;DHT22;5167;52.164;10.530;2023-07-24T06:13:06;22.90;9.40
10245;DHT22;5167;52.164;10.530;2023-07-24T06:15:31;22.90;9.10
10245;DHT22;5167;52.164;10.530;2023-07-24T06:17:57;22.90;8.80
10245;DHT22;5167;52.164;10.530;2023-07-24T06:20:22;22.90;8.40
10245;DHT22;5167;52.164;10.530;2023-07-24T06:22:48;22.90;8.70
10245;DHT22;5167;52.164;10.530;2023-07-24T06:25:13;22.80;7.10
10245;DHT22;5167;52.164;10.530;2023-07-24T06:27:39;22.90;9.10
10245;DHT22;5167;52.164;10.530;2023-07-24T06:30:05;22.90;9.40
10245;DHT22;5167;52.164;10.530;2023-07-24T06:32:31;22.90;9.40
10245;DHT22;5167;52.164;10.530;2023-07-24T06:34:56;22.90;9.40
10245;DHT22;5167;52.164;10.530;2023-07-24T06:37:22;23.00;8.10
10245;DHT22;5167;52.164;10.530;2023-07-24T06:39:47;23.00;7.90
10245;DHT22;5167;52.164;10.530;2023-07-24T06:42:13;23.00;7.30
10245;DHT22;5167;52.164;10.530;2023-07-24T06:44:38;23.00;7.00
10245;DHT22;5167;52.164;10.530;2023-07-24T06:47:04;23.10;8.70
10245;DHT22;5167;52.164;10.530;2023-07-24T06:49:29;23.20;8.00
10245;DHT22;5167;52.164;10.530;2023-07-24T06:51:55;23.30;5.30
10245;DHT22;5167;52.164;10.530;2023-07-24T06:54:20;23.60;5.80
10245;DHT22;5167;52.164;10.530;2023-07-24T06:56:46;23.50;5.30
10245;DHT22;5167;52.164;10.530;2023-07-24T06:59:11;23.60;5.00
10245;DHT22;5167;52.164;10.530;2023-07-24T07:01:37;23.60;5.00
10245;DHT22;5167;52.164;10.530;2023-07-24T07:04:02;23.70;5.00
10245;DHT22;5167;52.164;10.530;2023-07-24T07:06:28;23.70;5.00
10245;DHT22;5167;52.164;10.530;2023-07-24T07:08:53;23.70;5.00
10245;DHT22;5167;52.164;10.530;2023-07-24T07:11:19;23.80;5.00
10245;DHT22;5167;52.164;10.530;2023-07-24T07:13:44;23.90;5.00
10245;DHT22;5167;52.164;10.530;2023-07-24T07:16:10;23.90;5.00
10245;DHT22;5167;52.164;10.530;2023-07-24T07:18:35;24.00;5.00
10245;DHT22;5167;52.164;10.530;2023-07-24T07:21:01;24.00;5.00
10245;DHT22;5167;52.164;10.530;2023-07-24T07:23:26;24.10;5.00
10245;DHT22;5167;52.164;10.530;2023-07-24T07:25:52;24.10;5.00
10245;DHT22;5167;52.164;10.530;2023-07-24T07:28:17;24.20;5.00
10245;DHT22;5167;52.164;10.530;2023-07-24T07:30:44;24.10;5.00
10245;DHT22;5167;52.164;10.530;2023-07-24T07:33:10;24.20;5.00
10245;DHT22;5167;52.164;10.530;2023-07-24T07:35:36;24.20;5.00
10245;DHT22;5167;52.164;10.530;2023-07-24T07:38:02;24.20;5.00
10245;DHT22;5167;52.164;10.530;2023-07-24T07:40:28;24.30;5.00
10245;DHT22;5167;52.164;10.530;2023-07-24T07:42:55;24.40;5.00
10245;DHT22;5167;52.164;10.530;2023-07-24T07:45:21;24.50;5.00
10245;DHT22;5167;52.164;10.530;2023-07-24T07:47:46;24.60;5.00
10245;DHT22;5167;52.164;10.530;2023-07-24T07:50:12;24.80;5.00
10245;DHT22;5167;52.164;10.530;2023-07-24T07:52:38;24.80;5.00
10245;DHT22;5167;52.164;10.530;2023-07-24T07:55:04;25.00;5.00
10245;DHT22;5167;52.164;10.530;2023-07-24T07:57:34;25.10;5.00
10245;DHT22;5167;52.164;10.530;2023-07-24T08:00:01;25.10;5.00
10245;DHT22;5167;52.164;10.530;2023-07-24T08:02:27;25.30;5.00
10245;DHT22;5167;52.164;10.530;2023-07-24T08:04:52;25.30;5.00
10245;DHT22;5167;52.164;10.530;2023-07-24T08:07:18;25.40;5.00
10245;DHT22;5167;52.164;10.530;2023-07-24T08:09:45;25.60;5.00
10245;DHT22;5167;52.164;10.530;2023-07-24T08:12:11;25.80;5.00
10245;DHT22;5167;52.164;10.530;2023-07-24T08:14:36;25.90;5.00
10245;DHT22;5167;52.164;10.530;2023-07-24T08:17:02;26.10;5.00
10245;DHT22;5167;52.164;10.530;2023-07-24T08:19:28;26.30;5.00
10245;DHT22;5167;52.164;10.530;2023-07-24T08:21:54;26.50;5.00
10245;DHT22;5167;52.164;10.530;2023-07-24T08:24:20;26.70;5.00
10245;DHT22;5167;52.164;10.530;2023-07-24T08:26:45;26.80;5.00
10245;DHT22;5167;52.164;10.530;2023-07-24T08:29:11;27.20;5.00
10245;DHT22;5167;52.164;10.530;2023-07-24T08:31:36;27.10;5.00
10245;DHT22;5167;52.164;10.530;2023-07-24T08:34:02;27.20;5.00
10245;DHT22;5167;52.164;10.530;2023-07-24T08:36:27;27.30;5.00
10245;DHT22;5167;52.164;10.530;2023-07-24T08:38:54;27.30;5.00
10245;DHT22;5167;52.164;10.530;2023-07-24T08:41:19;27.30;5.00
10245;DHT22;5167;52.164;10.530;2023-07-24T08:43:45;27.50;5.00
10245;DHT22;5167;52.164;10.530;2023-07-24T08:46:11;27.70;5.00
10245;DHT22;5167;52.164;10.530;2023-07-24T08:48:39;27.80;5.00
10245;DHT22;5167;52.164;10.530;2023-07-24T08:51:08;27.90;5.00
10245;DHT22;5167;52.164;10.530;2023-07-24T08:53:35;27.70;5.00
10245;DHT22;5167;52.164;10.530;2023-07-24T08:56:03;27.70;5.00
10245;DHT22;5167;52.164;10.530;2023-07-24T08:58:28;27.60;5.00
10245;DHT22;5167;52.164;10.530;2023-07-24T09:00:56;27.50;5.00
10245;DHT22;5167;52.164;10.530;2023-07-24T09:03:21;27.30;5.00
10245;DHT22;5167;52.164;10.530;2023-07-24T09:05:47;27.20;5.00
10245;DHT22;5167;52.164;10.530;2023-07-24T09:08:13;26.90;5.00
10245;DHT22;5167;52.164;10.530;2023-07-24T09:10:39;26.80;5.00
10245;DHT22;5167;52.164;10.530;2023-07-24T09:13:04;26.60;5.00
10245;DHT22;5167;52.164;10.530;2023-07-24T09:15:43;26.30;5.00
10245;DHT22;5167;52.164;10.530;2023-07-24T09:18:09;25.90;5.00
10245;DHT22;5167;52.164;10.530;2023-07-24T09:20:42;25.70;5.00
10245;DHT22;5167;52.164;10.530;2023-07-24T09:23:09;25.50;5.00
10245;DHT22;5167;52.164;10.530;2023-07-24T09:25:36;25.20;5.00
10245;DHT22;5167;52.164;10.530;2023-07-24T09:28:14;25.00;5.00
10245;DHT22;5167;52.164;10.530;2023-07-24T09:30:41;24.90;6.60
10245;DHT22;5167;52.164;10.530;2023-07-24T09:33:07;24.80;8.80
10245;DHT22;5167;52.164;10.530;2023-07-24T09:35:33;24.80;9.60
10245;DHT22;5167;52.164;10.530;2023-07-24T09:38:07;24.70;10.40
10245;DHT22;5167;52.164;10.530;2023-07-24T09:40:44;24.80;8.90
10245;DHT22;5167;52.164;10.530;2023-07-24T09:43:20;24.90;8.20
10245;DHT22;5167;52.164;10.530;2023-07-24T09:45:47;25.00;7.80
10245;DHT22;5167;52.164;10.530;2023-07-24T09:48:14;25.20;7.20
10245;DHT22;5167;52.164;10.530;2023-07-24T09:50:41;25.20;5.50
10245;DHT22;5167;52.164;10.530;2023-07-24T09:53:12;25.30;5.00
10245;DHT22;5167;52.164;10.530;2023-07-24T09:55:57;25.30;5.00
10245;DHT22;5167;52.164;10.530;2023-07-24T09:58:23;25.50;5.00
10245;DHT22;5167;52.164;10.530;2023-07-24T10:00:50;25.50;5.00
10245;DHT22;5167;52.164;10.530;2023-07-24T10:03:16;25.60;5.00
10245;DHT22;5167;52.164;10.530;2023-07-24T10:05:44;25.60;5.00
10245;DHT22;5167;52.164;10.530;2023-07-24T10:08:10;25.70;5.00
10245;DHT22;5167;52.164;10.530;2023-07-24T10:10:38;25.80;5.00
10245;DHT22;5167;52.164;10.530;2023-07-24T10:13:04;26.00;5.00
10245;DHT22;5167;52.164;10.530;2023-07-24T10:15:29;26.10;5.00
10245;DHT22;5167;52.164;10.530;2023-07-24T10:18:03;26.20;5.00
10245;DHT22;5167;52.164;10.530;2023-07-24T10:20:41;26.40;5.00
10245;DHT22;5167;52.164;10.530;2023-07-24T10:23:09;26.60;5.00
10245;DHT22;5167;52.164;10.530;2023-07-24T10:25:36;26.80;5.00
10245;DHT22;5167;52.164;10.530;2023-07-24T10:28:06;27.10;5.00
10245;DHT22;5167;52.164;10.530;2023-07-24T10:30:40;27.00;5.00
10245;DHT22;5167;52.164;10.530;2023-07-24T10:33:11;27.10;5.00
10245;DHT22;5167;52.164;10.530;2023-07-24T10:35:49;27.30;5.00
10245;DHT22;5167;52.164;10.530;2023-07-24T10:38:16;27.20;5.00
10245;DHT22;5167;52.164;10.530;2023-07-24T10:40:44;27.40;5.00
10245;DHT22;5167;52.164;10.530;2023-07-24T10:43:12;27.50;5.00
10245;DHT22;5167;52.164;10.530;2023-07-24T10:45:48;27.80;5.00
10245;DHT22;5167;52.164;10.530;2023-07-24T10:48:18;27.70;5.00
10245;DHT22;5167;52.164;10.530;2023-07-24T10:50:45;27.80;5.00
10245;DHT22;5167;52.164;10.530;2023-07-24T10:53:14;27.90;5.00
10245;DHT22;5167;52.164;10.530;2023-07-24T10:55:41;28.00;5.00
10245;DHT22;5167;52.164;10.530;2023-07-24T10:58:07;28.00;5.00
10245;DHT22;5167;52.164;10.530;2023-07-24T11:00:33;27.90;5.00
10245;DHT22;5167;52.164;10.530;2023-07-24T11:02:59;27.90;5.00
10245;DHT22;5167;52.164;10.530;2023-07-24T11:05:25;27.90;5.00
10245;DHT22;5167;52.164;10.530;2023-07-24T11:07:51;27.90;5.00
10245;DHT22;5167;52.164;10.530;2023-07-24T11:10:22;27.80;5.00
10245;DHT22;5167;52.164;10.530;2023-07-24T11:12:48;27.90;5.00
10245;DHT22;5167;52.164;10.530;2023-07-24T11:15:15;28.00;5.00
10245;DHT22;5167;52.164;10.530;2023-07-24T11:17:42;28.00;5.00
10245;DHT22;5167;52.164;10.530;2023-07-24T11:22:37;28.20;5.00
10245;DHT22;5167;52.164;10.530;2023-07-24T11:25:03;28.30;5.00
10245;DHT22;5167;52.164;10.530;2023-07-24T11:27:30;28.40;5.00
10245;DHT22;5167;52.164;10.530;2023-07-24T11:29:55;28.40;5.00
10245;DHT22;5167;52.164;10.530;2023-07-24T11:32:21;28.60;5.00
10245;DHT22;5167;52.164;10.530;2023-07-24T11:34:50;28.50;5.00
10245;DHT22;5167;52.164;10.530;2023-07-24T11:37:17;28.40;5.00
10245;DHT22;5167;52.164;10.530;2023-07-24T11:39:54;28.40;5.00
10245;DHT22;5167;52.164;10.530;2023-07-24T11:42:19;28.30;5.00
10245;DHT22;5167;52.164;10.530;2023-07-24T11:44:45;28.30;5.00
10245;DHT22;5167;52.164;10.530;2023-07-24T11:47:10;28.20;5.00
10245;DHT22;5167;52.164;10.530;2023-07-24T11:49:36;28.10;5.00
10245;DHT22;5167;52.164;10.530;2023-07-24T11:52:05;28.10;5.00
10245;DHT22;5167;52.164;10.530;2023-07-24T11:54:34;28.00;5.00
10245;DHT22;5167;52.164;10.530;2023-07-24T11:57:00;27.90;5.00
10245;DHT22;5167;52.164;10.530;2023-07-24T11:59:26;27.90;5.00
10245;DHT22;5167;52.164;10.530;2023-07-24T12:01:52;27.70;5.00
10245;DHT22;5167;52.164;10.530;2023-07-24T12:04:17;27.90;5.00
10245;DHT22;5167;52.164;10.530;2023-07-24T12:06:43;27.70;5.00
10245;DHT22;5167;52.164;10.530;2023-07-24T12:09:10;27.70;5.00
10245;DHT22;5167;52.164;10.530;2023-07-24T12:11:43;27.60;5.00
10245;DHT22;5167;52.164;10.530;2023-07-24T12:14:09;27.60;5.00
10245;DHT22;5167;52.164;10.530;2023-07-24T12:16:36;27.50;5.00
10245;DHT22;5167;52.164;10.530;2023-07-24T12:19:01;27.50;5.00
10245;DHT22;5167;52.164;10.530;2023-07-24T12:21:27;27.50;5.00
10245;DHT22;5167;52.164;10.530;2023-07-24T12:23:52;27.60;5.00
10245;DHT22;5167;52.164;10.530;2023-07-24T12:26:18;27.60;5.00
10245;DHT22;5167;52.164;10.530;2023-07-24T12:28:43;27.60;5.00
10245;DHT22;5167;52.164;10.530;2023-07-24T12:31:09;27.60;5.00
10245;DHT22;5167;52.164;10.530;2023-07-24T12:33:34;27.60;5.00
10245;DHT22;5167;52.164;10.530;2023-07-24T12:36:00;27.60;5.00
10245;DHT22;5167;52.164;10.530;2023-07-24T12:38:27;27.70;5.00
10245;DHT22;5167;52.164;10.530;2023-07-24T12:40:52;27.70;5.00
10245;DHT22;5167;52.164;10.530;2023-07-24T12:43:18;27.80;5.00
10245;DHT22;5167;52.164;10.530;2023-07-24T12:45:43;27.90;5.00
10245;DHT22;5167;52.164;10.530;2023-07-24T12:48:09;27.90;5.00
10245;DHT22;5167;52.164;10.530;2023-07-24T12:50:35;28.00;5.00
10245;DHT22;5167;52.164;10.530;2023-07-24T12:53:00;28.10;5.00
10245;DHT22;5167;52.164;10.530;2023-07-24T12:55:26;28.00;5.00
10245;DHT22;5167;52.164;10.530;2023-07-24T12:57:52;28.10;5.00
10245;DHT22;5167;52.164;10.530;2023-07-24T13:00:18;28.10;5.00
10245;DHT22;5167;52.164;10.530;2023-07-24T13:02:43;28.10;5.00
10245;DHT22;5167;52.164;10.530;2023-07-24T13:05:09;28.10;5.00
10245;DHT22;5167;52.164;10.530;2023-07-24T13:07:34;28.10;5.00
10245;DHT22;5167;52.164;10.530;2023-07-24T13:10:00;28.10;5.00
10245;DHT22;5167;52.164;10.530;2023-07-24T13:12:25;28.10;5.00
10245;DHT22;5167;52.164;10.530;2023-07-24T13:14:51;28.10;5.00
10245;DHT22;5167;52.164;10.530;2023-07-24T13:17:17;28.00;5.00
10245;DHT22;5167;52.164;10.530;2023-07-24T13:19:42;27.90;5.00
10245;DHT22;5167;52.164;10.530;2023-07-24T13:22:08;28.00;5.00
10245;DHT22;5167;52.164;10.530;2023-07-24T13:24:33;27.90;5.00
10245;DHT22;5167;52.164;10.530;2023-07-24T13:26:59;27.90;5.00
10245;DHT22;5167;52.164;10.530;2023-07-24T13:29:24;27.90;5.00
10245;DHT22;5167;52.164;10.530;2023-07-24T13:31:51;27.90;5.00
10245;DHT22;5167;52.164;10.530;2023-07-24T13:34:19;27.90;5.00
10245;DHT22;5167;52.164;10.530;2023-07-24T13:36:48;27.90;5.00
10245;DHT22;5167;52.164;10.530;2023-07-24T13:39:14;27.80;5.00
10245;DHT22;5167;52.164;10.530;2023-07-24T13:41:39;27.80;5.00
10245;DHT22;5167;52.164;10.530;2023-07-24T13:44:05;28.00;5.00
10245;DHT22;5167;52.164;10.530;2023-07-24T13:46:30;27.90;5.00
10245;DHT22;5167;52.164;10.530;2023-07-24T13:48:56;27.90;5.00
10245;DHT22;5167;52.164;10.530;2023-07-24T13:51:21;27.90;5.00
10245;DHT22;5167;52.164;10.530;2023-07-24T13:53:47;27.80;5.00
10245;DHT22;5167;52.164;10.530;2023-07-24T13:56:14;27.70;5.00
10245;DHT22;5167;52.164;10.530;2023-07-24T13:58:40;27.60;5.00
10245;DHT22;5167;52.164;10.530;2023-07-24T14:01:05;27.40;5.00
10245;DHT22;5167;52.164;10.530;2023-07-24T14:03:33;27.40;5.00
10245;DHT22;5167;52.164;10.530;2023-07-24T14:05:58;27.30;5.00
10245;DHT22;5167;52.164;10.530;2023-07-24T14:08:24;27.30;5.00
10245;DHT22;5167;52.164;10.530;2023-07-24T14:10:50;27.30;5.00
10245;DHT22;5167;52.164;10.530;2023-07-24T14:13:16;27.10;5.00
10245;DHT22;5167;52.164;10.530;2023-07-24T14:15:42;27.10;5.00
10245;DHT22;5167;52.164;10.530;2023-07-24T14:18:07;27.10;5.00
10245;DHT22;5167;52.164;10.530;2023-07-24T14:20:33;27.10;5.00
10245;DHT22;5167;52.164;10.530;2023-07-24T14:22:58;27.10;5.00
10245;DHT22;5167;52.164;10.530;2023-07-24T14:25:24;27.00;5.00
10245;DHT22;5167;52.164;10.530;2023-07-24T14:27:49;27.00;5.00
10245;DHT22;5167;52.164;10.530;2023-07-24T14:30:15;27.20;5.00
10245;DHT22;5167;52.164;10.530;2023-07-24T14:32:41;27.00;5.00
10245;DHT22;5167;52.164;10.530;2023-07-24T14:35:06;27.00;5.00
10245;DHT22;5167;52.164;10.530;2023-07-24T14:37:32;27.00;5.00
10245;DHT22;5167;52.164;10.530;2023-07-24T14:39:57;26.90;5.00
10245;DHT22;5167;52.164;10.530;2023-07-24T14:42:23;27.00;5.00
10245;DHT22;5167;52.164;10.530;2023-07-24T14:44:48;26.90;5.00
10245;DHT22;5167;52.164;10.530;2023-07-24T14:47:14;26.90;5.00
10245;DHT22;5167;52.164;10.530;2023-07-24T14:49:40;26.90;5.00
10245;DHT22;5167;52.164;10.530;2023-07-24T14:52:06;26.80;5.00
10245;DHT22;5167;52.164;10.530;2023-07-24T14:54:31;26.90;5.00
10245;DHT22;5167;52.164;10.530;2023-07-24T14:56:58;26.90;5.00
10245;DHT22;5167;52.164;10.530;2023-07-24T14:59:24;26.70;5.00
10245;DHT22;5167;52.164;10.530;2023-07-24T15:01:49;26.70;5.00
10245;DHT22;5167;52.164;10.530;2023-07-24T15:04:15;26.70;5.00
10245;DHT22;5167;52.164;10.530;2023-07-24T15:06:40;26.50;5.00
10245;DHT22;5167;52.164;10.530;2023-07-24T15:09:06;26.50;5.00
10245;DHT22;5167;52.164;10.530;2023-07-24T15:11:31;26.30;5.00
10245;DHT22;5167;52.164;10.530;2023-07-24T15:13:57;26.30;5.00
10245;DHT22;5167;52.164;10.530;2023-07-24T15:16:22;26.00;5.00
10245;DHT22;5167;52.164;10.530;2023-07-24T15:18:48;25.70;5.00
10245;DHT22;5167;52.164;10.530;2023-07-24T15:21:14;25.30;5.00
10245;DHT22;5167;52.164;10.530;2023-07-24T15:23:39;25.00;5.00
10245;DHT22;5167;52.164;10.530;2023-07-24T15:26:05;24.70;5.00
10245;DHT22;5167;52.164;10.530;2023-07-24T15:28:30;24.40;5.00
10245;DHT22;5167;52.164;10.530;2023-07-24T15:30:56;24.00;5.00
10245;DHT22;5167;52.164;10.530;2023-07-24T15:33:21;23.80;5.00
10245;DHT22;5167;52.164;10.530;2023-07-24T15:35:49;23.60;5.00
10245;DHT22;5167;52.164;10.530;2023-07-24T15:38:14;23.40;5.00